sensor_id;sensor_type;location;lat;lon;timestamp;P1;durP1;ratioP1;P2;durP2;ratioP2
1128;SDS011;553;51.038;7.216;2022-12-18T00:01:05;13.18;;;6.78;;
1128;SDS011;553;51.038;7.216;2022-12-18T00:03:41;12.15;;;6.82;;
1128;SDS011;553;51.038;7.216;2022-12-18T00:06:08;15.15;;;7.55;;
1128;SDS011;553;51.038;7.216;2022-12-18T00:08:35;12.48;;;5.95;;
1128;SDS011;553;51.038;7.216;2022-12-18T00:11:05;14.77;;;6.43;;
1128;SDS011;553;51.038;7.216;2022-12-18T00:13:33;9.45;;;5.65;;
1128;SDS011;553;51.038;7.216;2022-12-18T00:16:04;11.50;;;6.75;;
1128;SDS011;553;51.038;7.216;2022-12-18T00:18:48;13.63;;;7.15;;
1128;SDS011;553;51.038;7.216;2022-12-18T00:21:16;15.20;;;7.22;;
1128;SDS011;553;51.038;7.216;2022-12-18T00:23:44;13.93;;;6.72;;
1128;SDS011;553;51.038;7.216;2022-12-18T00:26:18;13.30;;;6.68;;
1128;SDS011;553;51.038;7.216;2022-12-18T00:28:48;11.20;;;5.90;;
1128;SDS011;553;51.038;7.216;2022-12-18T00:31:16;12.23;;;6.53;;
1128;SDS011;553;51.038;7.216;2022-12-18T00:33:45;13.48;;;6.80;;
1128;SDS011;553;51.038;7.216;2022-12-18T00:36:18;9.93;;;5.82;;
1128;SDS011;553;51.038;7.216;2022-12-18T00:38:46;12.02;;;7.53;;
1128;SDS011;553;51.038;7.216;2022-12-18T00:41:17;17.00;;;7.45;;
1128;SDS011;553;51.038;7.216;2022-12-18T00:44:03;13.60;;;6.40;;
1128;SDS011;553;51.038;7.216;2022-12-18T00:46:31;12.55;;;7.05;;
1128;SDS011;553;51.038;7.216;2022-12-18T00:48:58;13.20;;;7.22;;
1128;SDS011;553;51.038;7.216;2022-12-18T00:51:25;13.20;;;6.60;;
1128;SDS011;553;51.038;7.216;2022-12-18T00:53:52;16.33;;;7.43;;
1128;SDS011;553;51.038;7.216;2022-12-18T00:56:19;14.73;;;8.40;;
1128;SDS011;553;51.038;7.216;2022-12-18T00:58:47;13.32;;;7.22;;
1128;SDS011;553;51.038;7.216;2022-12-18T01:01:14;10.77;;;6.15;;
1128;SDS011;553;51.038;7.216;2022-12-18T01:03:41;13.75;;;6.03;;
1128;SDS011;553;51.038;7.216;2022-12-18T01:06:09;11.82;;;7.07;;
1128;SDS011;553;51.038;7.216;2022-12-18T01:08:38;12.10;;;7.20;;
1128;SDS011;553;51.038;7.216;2022-12-18T01:11:09;13.48;;;7.00;;
1128;SDS011;553;51.038;7.216;2022-12-18T01:13:38;11.52;;;7.00;;
1128;SDS011;553;51.038;7.216;2022-12-18T01:16:06;17.00;;;7.50;;
1128;SDS011;553;51.038;7.216;2022-12-18T01:18:34;8.20;;;5.07;;
1128;SDS011;553;51.038;7.216;2022-12-18T01:21:05;11.15;;;6.03;;
1128;SDS011;553;51.038;7.216;2022-12-18T01:23:35;9.70;;;5.90;;
1128;SDS011;553;51.038;7.216;2022-12-18T01:26:07;10.85;;;5.35;;
1128;SDS011;553;51.038;7.216;2022-12-18T01:28:35;11.52;;;5.97;;
1128;SDS011;553;51.038;7.216;2022-12-18T01:31:13;11.70;;;6.20;;
1128;SDS011;553;51.038;7.216;2022-12-18T01:33:40;12.30;;;6.65;;
1128;SDS011;553;51.038;7.216;2022-12-18T01:36:07;14.80;;;7.30;;
1128;SDS011;553;51.038;7.216;2022-12-18T01:38:40;12.45;;;6.18;;
1128;SDS011;553;51.038;7.216;2022-12-18T01:41:07;11.20;;;6.82;;
1128;SDS011;553;51.038;7.216;2022-12-18T01:43:42;10.30;;;5.38;;
1128;SDS011;553;51.038;7.216;2022-12-18T01:46:24;9.30;;;6.03;;
1128;SDS011;553;51.038;7.216;2022-12-18T01:48:58;13.45;;;5.95;;
1128;SDS011;553;51.038;7.216;2022-12-18T01:51:27;13.65;;;6.75;;
1128;SDS011;553;51.038;7.216;2022-12-18T01:53:56;11.85;;;6.43;;
1128;SDS011;553;51.038;7.216;2022-12-18T01:56:24;10.85;;;6.10;;
1128;SDS011;553;51.038;7.216;2022-12-18T01:58:55;8.32;;;5.43;;
1128;SDS011;553;51.038;7.216;2022-12-18T02:01:30;9.68;;;5.53;;
1128;SDS011;553;51.038;7.216;2022-12-18T02:06:45;11.73;;;5.50;;
1128;SDS011;553;51.038;7.216;2022-12-18T02:09:25;11.90;;;5.97;;
1128;SDS011;553;51.038;7.216;2022-12-18T02:12:10;9.18;;;5.45;;
1128;SDS011;553;51.038;7.216;2022-12-18T02:14:47;10.60;;;5.20;;
1128;SDS011;553;51.038;7.216;2022-12-18T02:22:36;10.93;;;5.00;;
1128;SDS011;553;51.038;7.216;2022-12-18T02:25:20;8.93;;;5.13;;
1128;SDS011;553;51.038;7.216;2022-12-18T02:27:56;15.35;;;6.53;;
1128;SDS011;553;51.038;7.216;2022-12-18T02:30:26;11.27;;;5.20;;
1128;SDS011;553;51.038;7.216;2022-12-18T02:32:57;11.65;;;5.97;;
1128;SDS011;553;51.038;7.216;2022-12-18T02:35:27;11.98;;;5.65;;
1128;SDS011;553;51.038;7.216;2022-12-18T02:37:58;12.30;;;6.43;;
1128;SDS011;553;51.038;7.216;2022-12-18T02:40:28;12.10;;;5.53;;
1128;SDS011;553;51.038;7.216;2022-12-18T02:43:11;10.38;;;5.72;;
1128;SDS011;553;51.038;7.216;2022-12-18T02:45:47;11.13;;;5.63;;
1128;SDS011;553;51.038;7.216;2022-12-18T02:48:31;10.80;;;5.20;;
1128;SDS011;553;51.038;7.216;2022-12-18T02:51:23;9.88;;;4.65;;
1128;SDS011;553;51.038;7.216;2022-12-18T02:54:11;12.00;;;5.47;;
1128;SDS011;553;51.038;7.216;2022-12-18T02:56:54;8.18;;;5.40;;
1128;SDS011;553;51.038;7.216;2022-12-18T02:59:26;10.13;;;5.57;;
1128;SDS011;553;51.038;7.216;2022-12-18T03:04:59;11.23;;;5.50;;
1128;SDS011;553;51.038;7.216;2022-12-18T03:07:37;10.13;;;5.60;;
1128;SDS011;553;51.038;7.216;2022-12-18T03:10:12;10.68;;;5.20;;
1128;SDS011;553;51.038;7.216;2022-12-18T03:12:53;11.98;;;5.57;;
1128;SDS011;553;51.038;7.216;2022-12-18T03:15:41;10.57;;;6.03;;
1128;SDS011;553;51.038;7.216;2022-12-18T03:18:18;11.50;;;5.38;;
1128;SDS011;553;51.038;7.216;2022-12-18T03:20:51;10.82;;;5.45;;
1128;SDS011;553;51.038;7.216;2022-12-18T03:23:22;9.90;;;5.60;;
1128;SDS011;553;51.038;7.216;2022-12-18T03:25:54;9.25;;;5.70;;
1128;SDS011;553;51.038;7.216;2022-12-18T03:28:39;13.45;;;5.20;;
1128;SDS011;553;51.038;7.216;2022-12-18T03:31:10;14.73;;;6.65;;
1128;SDS011;553;51.038;7.216;2022-12-18T03:33:45;10.07;;;5.03;;
1128;SDS011;553;51.038;7.216;2022-12-18T03:36:23;9.00;;;5.53;;
1128;SDS011;553;51.038;7.216;2022-12-18T03:38:50;10.07;;;5.15;;
1128;SDS011;553;51.038;7.216;2022-12-18T03:44:29;10.35;;;5.00;;
1128;SDS011;553;51.038;7.216;2022-12-18T03:47:11;9.77;;;5.57;;
1128;SDS011;553;51.038;7.216;2022-12-18T03:55:09;11.52;;;6.10;;
1128;SDS011;553;51.038;7.216;2022-12-18T03:57:38;12.65;;;5.40;;
1128;SDS011;553;51.038;7.216;2022-12-18T04:00:11;9.75;;;5.28;;
1128;SDS011;553;51.038;7.216;2022-12-18T04:02:49;13.30;;;5.32;;
1128;SDS011;553;51.038;7.216;2022-12-18T04:05:25;11.57;;;6.47;;
1128;SDS011;553;51.038;7.216;2022-12-18T04:07:52;9.70;;;6.03;;
1128;SDS011;553;51.038;7.216;2022-12-18T04:10:21;10.20;;;5.22;;
1128;SDS011;553;51.038;7.216;2022-12-18T04:12:47;9.15;;;5.88;;
1128;SDS011;553;51.038;7.216;2022-12-18T04:15:14;13.32;;;5.90;;
1128;SDS011;553;51.038;7.216;2022-12-18T04:17:47;12.93;;;7.28;;
1128;SDS011;553;51.038;7.216;2022-12-18T04:20:17;10.77;;;5.82;;
1128;SDS011;553;51.038;7.216;2022-12-18T04:22:44;11.93;;;6.95;;
1128;SDS011;553;51.038;7.216;2022-12-18T04:25:12;12.95;;;6.05;;
1128;SDS011;553;51.038;7.216;2022-12-18T04:27:51;12.90;;;6.10;;
1128;SDS011;553;51.038;7.216;2022-12-18T04:30:18;10.30;;;5.68;;
1128;SDS011;553;51.038;7.216;2022-12-18T04:32:44;12.20;;;6.00;;
1128;SDS011;553;51.038;7.216;2022-12-18T04:35:18;9.23;;;5.93;;
1128;SDS011;553;51.038;7.216;2022-12-18T04:37:45;8.63;;;5.22;;
1128;SDS011;553;51.038;7.216;2022-12-18T04:40:12;13.90;;;6.50;;
1128;SDS011;553;51.038;7.216;2022-12-18T04:42:42;13.20;;;6.95;;
1128;SDS011;553;51.038;7.216;2022-12-18T04:45:09;9.13;;;5.40;;
1128;SDS011;553;51.038;7.216;2022-12-18T04:47:35;11.05;;;5.60;;
1128;SDS011;553;51.038;7.216;2022-12-18T04:50:02;14.77;;;6.07;;
1128;SDS011;553;51.038;7.216;2022-12-18T04:52:29;12.93;;;6.18;;
1128;SDS011;553;51.038;7.216;2022-12-18T04:54:57;12.02;;;7.03;;
1128;SDS011;553;51.038;7.216;2022-12-18T04:57:24;8.13;;;5.95;;
1128;SDS011;553;51.038;7.216;2022-12-18T04:59:50;13.07;;;6.22;;
1128;SDS011;553;51.038;7.216;2022-12-18T05:02:18;12.15;;;6.88;;
1128;SDS011;553;51.038;7.216;2022-12-18T05:04:45;14.23;;;6.55;;
1128;SDS011;553;51.038;7.216;2022-12-18T05:07:12;13.18;;;6.28;;
1128;SDS011;553;51.038;7.216;2022-12-18T05:09:38;11.48;;;5.30;;
1128;SDS011;553;51.038;7.216;2022-12-18T05:12:05;12.95;;;6.32;;
1128;SDS011;553;51.038;7.216;2022-12-18T05:14:32;15.80;;;6.25;;
1128;SDS011;553;51.038;7.216;2022-12-18T05:16:58;12.57;;;7.05;;
1128;SDS011;553;51.038;7.216;2022-12-18T05:19:26;13.27;;;6.45;;
1128;SDS011;553;51.038;7.216;2022-12-18T05:21:53;13.10;;;6.97;;
1128;SDS011;553;51.038;7.216;2022-12-18T05:24:19;13.68;;;6.88;;
1128;SDS011;553;51.038;7.216;2022-12-18T05:26:46;13.00;;;7.00;;
1128;SDS011;553;51.038;7.216;2022-12-18T05:29:13;13.63;;;6.15;;
1128;SDS011;553;51.038;7.216;2022-12-18T05:31:39;12.52;;;6.13;;
1128;SDS011;553;51.038;7.216;2022-12-18T05:34:07;11.95;;;6.97;;
1128;SDS011;553;51.038;7.216;2022-12-18T05:36:35;12.20;;;6.50;;
1128;SDS011;553;51.038;7.216;2022-12-18T05:39:02;15.80;;;8.02;;
1128;SDS011;553;51.038;7.216;2022-12-18T05:41:29;11.05;;;5.70;;
1128;SDS011;553;51.038;7.216;2022-12-18T05:43:56;12.90;;;6.78;;
1128;SDS011;553;51.038;7.216;2022-12-18T05:46:23;13.98;;;6.93;;
1128;SDS011;553;51.038;7.216;2022-12-18T05:48:50;10.73;;;5.43;;
1128;SDS011;553;51.038;7.216;2022-12-18T05:51:19;18.75;;;7.10;;
1128;SDS011;553;51.038;7.216;2022-12-18T05:53:47;14.27;;;7.00;;
1128;SDS011;553;51.038;7.216;2022-12-18T05:56:18;12.70;;;7.43;;
1128;SDS011;553;51.038;7.216;2022-12-18T05:58:47;16.85;;;7.50;;
1128;SDS011;553;51.038;7.216;2022-12-18T06:01:18;11.07;;;7.60;;
1128;SDS011;553;51.038;7.216;2022-12-18T06:03:47;18.90;;;7.93;;
1128;SDS011;553;51.038;7.216;2022-12-18T06:06:18;13.63;;;7.18;;
1128;SDS011;553;51.038;7.216;2022-12-18T06:08:47;15.27;;;7.25;;
1128;SDS011;553;51.038;7.216;2022-12-18T06:11:16;13.02;;;6.95;;
1128;SDS011;553;51.038;7.216;2022-12-18T06:13:44;11.88;;;6.75;;
1128;SDS011;553;51.038;7.216;2022-12-18T06:16:11;16.33;;;8.13;;
1128;SDS011;553;51.038;7.216;2022-12-18T06:18:38;15.02;;;8.55;;
1128;SDS011;553;51.038;7.216;2022-12-18T06:21:05;17.20;;;8.73;;
1128;SDS011;553;51.038;7.216;2022-12-18T06:23:31;13.77;;;7.13;;
1128;SDS011;553;51.038;7.216;2022-12-18T06:25:58;15.43;;;8.50;;
1128;SDS011;553;51.038;7.216;2022-12-18T06:28:25;17.27;;;8.82;;
1128;SDS011;553;51.038;7.216;2022-12-18T06:30:51;14.07;;;7.43;;
1128;SDS011;553;51.038;7.216;2022-12-18T06:33:19;15.70;;;8.05;;
1128;SDS011;553;51.038;7.216;2022-12-18T06:35:45;18.02;;;10.95;;
1128;SDS011;553;51.038;7.216;2022-12-18T06:38:12;14.15;;;7.97;;
1128;SDS011;553;51.038;7.216;2022-12-18T06:40:39;13.68;;;7.50;;
1128;SDS011;553;51.038;7.216;2022-12-18T06:43:05;12.85;;;7.10;;
1128;SDS011;553;51.038;7.216;2022-12-18T06:45:32;16.13;;;8.05;;
1128;SDS011;553;51.038;7.216;2022-12-18T06:47:59;17.00;;;8.30;;
1128;SDS011;553;51.038;7.216;2022-12-18T06:50:26;20.67;;;12.05;;
1128;SDS011;553;51.038;7.216;2022-12-18T06:52:53;14.20;;;7.90;;
1128;SDS011;553;51.038;7.216;2022-12-18T06:55:20;16.48;;;9.35;;
1128;SDS011;553;51.038;7.216;2022-12-18T06:57:46;14.43;;;9.35;;
1128;SDS011;553;51.038;7.216;2022-12-18T07:00:13;12.45;;;7.40;;
1128;SDS011;553;51.038;7.216;2022-12-18T07:02:40;20.80;;;8.35;;
1128;SDS011;553;51.038;7.216;2022-12-18T07:05:07;16.95;;;8.82;;
1128;SDS011;553;51.038;7.216;2022-12-18T07:07:36;17.98;;;8.15;;
1128;SDS011;553;51.038;7.216;2022-12-18T07:10:03;14.63;;;7.85;;
1128;SDS011;553;51.038;7.216;2022-12-18T07:12:30;17.88;;;8.75;;
1128;SDS011;553;51.038;7.216;2022-12-18T07:14:57;16.17;;;9.02;;
1128;SDS011;553;51.038;7.216;2022-12-18T07:17:23;15.10;;;7.85;;
1128;SDS011;553;51.038;7.216;2022-12-18T07:19:50;19.42;;;8.60;;
1128;SDS011;553;51.038;7.216;2022-12-18T07:22:16;19.00;;;9.30;;
1128;SDS011;553;51.038;7.216;2022-12-18T07:24:43;14.10;;;7.72;;
1128;SDS011;553;51.038;7.216;2022-12-18T07:27:10;16.95;;;8.85;;
1128;SDS011;553;51.038;7.216;2022-12-18T07:29:36;17.50;;;8.73;;
1128;SDS011;553;51.038;7.216;2022-12-18T07:32:04;22.55;;;8.18;;
1128;SDS011;553;51.038;7.216;2022-12-18T07:34:31;16.23;;;8.95;;
1128;SDS011;553;51.038;7.216;2022-12-18T07:36:58;15.88;;;8.40;;
1128;SDS011;553;51.038;7.216;2022-12-18T07:39:25;15.40;;;7.55;;
1128;SDS011;553;51.038;7.216;2022-12-18T07:41:52;13.82;;;7.80;;
1128;SDS011;553;51.038;7.216;2022-12-18T07:44:38;15.70;;;8.10;;
1128;SDS011;553;51.038;7.216;2022-12-18T07:47:05;19.40;;;8.82;;
1128;SDS011;553;51.038;7.216;2022-12-18T07:49:37;12.13;;;6.57;;
1128;SDS011;553;51.038;7.216;2022-12-18T07:52:04;14.90;;;7.78;;
1128;SDS011;553;51.038;7.216;2022-12-18T07:54:30;14.18;;;7.90;;
1128;SDS011;553;51.038;7.216;2022-12-18T07:56:57;15.30;;;7.78;;
1128;SDS011;553;51.038;7.216;2022-12-18T07:59:24;15.30;;;7.50;;
1128;SDS011;553;51.038;7.216;2022-12-18T08:01:50;14.40;;;8.10;;
1128;SDS011;553;51.038;7.216;2022-12-18T08:04:17;11.48;;;6.95;;
1128;SDS011;553;51.038;7.216;2022-12-18T08:06:43;14.90;;;8.20;;
1128;SDS011;553;51.038;7.216;2022-12-18T08:09:13;13.65;;;7.47;;
1128;SDS011;553;51.038;7.216;2022-12-18T08:11:40;14.35;;;8.05;;
1128;SDS011;553;51.038;7.216;2022-12-18T08:14:07;13.70;;;7.50;;
1128;SDS011;553;51.038;7.216;2022-12-18T08:16:34;13.40;;;6.55;;
1128;SDS011;553;51.038;7.216;2022-12-18T08:19:01;11.48;;;6.60;;
1128;SDS011;553;51.038;7.216;2022-12-18T08:21:28;14.10;;;7.35;;
1128;SDS011;553;51.038;7.216;2022-12-18T08:23:57;14.52;;;8.73;;
1128;SDS011;553;51.038;7.216;2022-12-18T08:26:26;14.45;;;8.50;;
1128;SDS011;553;51.038;7.216;2022-12-18T08:28:55;12.43;;;5.13;;
1128;SDS011;553;51.038;7.216;2022-12-18T08:31:23;15.05;;;6.53;;
1128;SDS011;553;51.038;7.216;2022-12-18T08:33:51;20.45;;;8.38;;
1128;SDS011;553;51.038;7.216;2022-12-18T08:36:19;18.90;;;8.15;;
1128;SDS011;553;51.038;7.216;2022-12-18T08:38:46;12.43;;;6.53;;
1128;SDS011;553;51.038;7.216;2022-12-18T08:41:14;16.42;;;7.50;;
1128;SDS011;553;51.038;7.216;2022-12-18T08:43:42;16.15;;;6.38;;
1128;SDS011;553;51.038;7.216;2022-12-18T08:46:31;17.02;;;7.47;;
1128;SDS011;553;51.038;7.216;2022-12-18T08:49:00;10.63;;;5.70;;
1128;SDS011;553;51.038;7.216;2022-12-18T08:51:29;13.23;;;6.72;;
1128;SDS011;553;51.038;7.216;2022-12-18T08:53:56;14.95;;;7.10;;
1128;SDS011;553;51.038;7.216;2022-12-18T08:56:22;11.65;;;5.82;;
1128;SDS011;553;51.038;7.216;2022-12-18T08:58:53;16.83;;;7.25;;
1128;SDS011;553;51.038;7.216;2022-12-18T09:01:20;18.63;;;7.88;;
1128;SDS011;553;51.038;7.216;2022-12-18T09:03:48;13.18;;;6.90;;
1128;SDS011;553;51.038;7.216;2022-12-18T09:06:16;10.57;;;7.40;;
1128;SDS011;553;51.038;7.216;2022-12-18T09:08:44;10.55;;;6.20;;
1128;SDS011;553;51.038;7.216;2022-12-18T09:11:13;14.13;;;5.57;;
1128;SDS011;553;51.038;7.216;2022-12-18T09:13:44;13.60;;;7.15;;
1128;SDS011;553;51.038;7.216;2022-12-18T09:16:11;9.60;;;5.53;;
1128;SDS011;553;51.038;7.216;2022-12-18T09:18:37;14.05;;;6.80;;
1128;SDS011;553;51.038;7.216;2022-12-18T09:21:08;10.50;;;6.28;;
1128;SDS011;553;51.038;7.216;2022-12-18T09:23:36;9.77;;;5.57;;
1128;SDS011;553;51.038;7.216;2022-12-18T09:26:03;12.52;;;7.22;;
1128;SDS011;553;51.038;7.216;2022-12-18T09:28:30;12.77;;;7.38;;
1128;SDS011;553;51.038;7.216;2022-12-18T09:30:57;10.48;;;7.43;;
1128;SDS011;553;51.038;7.216;2022-12-18T09:33:23;13.20;;;8.27;;
1128;SDS011;553;51.038;7.216;2022-12-18T09:35:51;18.70;;;7.30;;
1128;SDS011;553;51.038;7.216;2022-12-18T09:38:18;13.38;;;6.40;;
1128;SDS011;553;51.038;7.216;2022-12-18T09:40:47;11.20;;;5.93;;
1128;SDS011;553;51.038;7.216;2022-12-18T09:43:18;12.57;;;7.35;;
1128;SDS011;553;51.038;7.216;2022-12-18T09:45:59;11.63;;;6.65;;
1128;SDS011;553;51.038;7.216;2022-12-18T09:48:34;12.10;;;6.47;;
1128;SDS011;553;51.038;7.216;2022-12-18T09:51:15;10.10;;;5.68;;
1128;SDS011;553;51.038;7.216;2022-12-18T09:53:53;11.57;;;5.50;;
1128;SDS011;553;51.038;7.216;2022-12-18T09:56:24;11.05;;;6.72;;
1128;SDS011;553;51.038;7.216;2022-12-18T09:58:58;12.73;;;6.57;;
1128;SDS011;553;51.038;7.216;2022-12-18T10:01:27;10.20;;;6.43;;
1128;SDS011;553;51.038;7.216;2022-12-18T10:04:08;11.60;;;6.20;;
1128;SDS011;553;51.038;7.216;2022-12-18T10:06:40;12.25;;;6.85;;
1128;SDS011;553;51.038;7.216;2022-12-18T10:17:25;14.32;;;7.45;;
1128;SDS011;553;51.038;7.216;2022-12-18T10:20:13;12.48;;;6.05;;
1128;SDS011;553;51.038;7.216;2022-12-18T10:25:33;9.98;;;4.63;;
1128;SDS011;553;51.038;7.216;2022-12-18T10:28:10;9.63;;;5.68;;
1128;SDS011;553;51.038;7.216;2022-12-18T10:30:40;9.52;;;5.63;;
1128;SDS011;553;51.038;7.216;2022-12-18T10:33:12;12.02;;;6.45;;
1128;SDS011;553;51.038;7.216;2022-12-18T10:35:43;8.52;;;4.90;;
1128;SDS011;553;51.038;7.216;2022-12-18T10:40:57;11.63;;;6.93;;
1128;SDS011;553;51.038;7.216;2022-12-18T10:48:35;13.00;;;6.53;;
1128;SDS011;553;51.038;7.216;2022-12-18T10:51:26;12.40;;;6.40;;
1128;SDS011;553;51.038;7.216;2022-12-18T10:56:32;10.80;;;5.93;;
1128;SDS011;553;51.038;7.216;2022-12-18T10:59:02;9.52;;;5.22;;
1128;SDS011;553;51.038;7.216;2022-12-18T11:04:24;9.15;;;5.63;;
1128;SDS011;553;51.038;7.216;2022-12-18T11:06:59;10.95;;;5.15;;
1128;SDS011;553;51.038;7.216;2022-12-18T11:09:28;9.57;;;5.63;;
1128;SDS011;553;51.038;7.216;2022-12-18T11:12:15;10.27;;;5.93;;
1128;SDS011;553;51.038;7.216;2022-12-18T11:14:47;11.27;;;5.78;;
1128;SDS011;553;51.038;7.216;2022-12-18T11:17:20;10.80;;;6.57;;
1128;SDS011;553;51.038;7.216;2022-12-18T11:20:03;11.90;;;6.75;;
1128;SDS011;553;51.038;7.216;2022-12-18T11:22:36;9.90;;;5.80;;
1128;SDS011;553;51.038;7.216;2022-12-18T11:25:05;8.05;;;5.32;;
1128;SDS011;553;51.038;7.216;2022-12-18T11:28:02;12.05;;;6.43;;
1128;SDS011;553;51.038;7.216;2022-12-18T11:30:48;9.55;;;5.25;;
1128;SDS011;553;51.038;7.216;2022-12-18T11:33:16;9.52;;;5.13;;
1128;SDS011;553;51.038;7.216;2022-12-18T11:38:22;10.25;;;5.88;;
1128;SDS011;553;51.038;7.216;2022-12-18T11:40:59;10.90;;;6.25;;
1128;SDS011;553;51.038;7.216;2022-12-18T11:43:34;9.95;;;6.20;;
1128;SDS011;553;51.038;7.216;2022-12-18T11:46:09;9.77;;;6.63;;
1128;SDS011;553;51.038;7.216;2022-12-18T11:48:47;12.68;;;8.02;;
1128;SDS011;553;51.038;7.216;2022-12-18T11:51:26;11.90;;;6.70;;
1128;SDS011;553;51.038;7.216;2022-12-18T11:54:00;13.90;;;6.57;;
1128;SDS011;553;51.038;7.216;2022-12-18T11:56:35;11.32;;;6.50;;
1128;SDS011;553;51.038;7.216;2022-12-18T12:01:52;14.10;;;7.07;;
1128;SDS011;553;51.038;7.216;2022-12-18T12:04:41;13.05;;;7.00;;
1128;SDS011;553;51.038;7.216;2022-12-18T12:09:53;15.98;;;7.80;;
1128;SDS011;553;51.038;7.216;2022-12-18T12:15:34;16.10;;;8.10;;
1128;SDS011;553;51.038;7.216;2022-12-18T12:23:55;13.85;;;7.95;;
1128;SDS011;553;51.038;7.216;2022-12-18T12:31:44;13.75;;;8.10;;
1128;SDS011;553;51.038;7.216;2022-12-18T12:40:45;16.77;;;8.68;;
1128;SDS011;553;51.038;7.216;2022-12-18T12:43:25;14.27;;;8.63;;
1128;SDS011;553;51.038;7.216;2022-12-18T12:46:15;17.80;;;9.43;;
1128;SDS011;553;51.038;7.216;2022-12-18T12:48:51;22.52;;;10.48;;
1128;SDS011;553;51.038;7.216;2022-12-18T12:51:25;14.88;;;9.57;;
1128;SDS011;553;51.038;7.216;2022-12-18T12:53:54;17.08;;;9.90;;
1128;SDS011;553;51.038;7.216;2022-12-18T12:56:24;19.13;;;11.15;;
1128;SDS011;553;51.038;7.216;2022-12-18T12:58:58;17.17;;;9.98;;
1128;SDS011;553;51.038;7.216;2022-12-18T13:07:15;20.83;;;11.57;;
1128;SDS011;553;51.038;7.216;2022-12-18T13:12:54;19.60;;;11.20;;
1128;SDS011;553;51.038;7.216;2022-12-18T13:15:24;18.48;;;10.10;;
1128;SDS011;553;51.038;7.216;2022-12-18T13:18:02;19.13;;;11.23;;
1128;SDS011;553;51.038;7.216;2022-12-18T13:20:35;24.27;;;11.45;;
1128;SDS011;553;51.038;7.216;2022-12-18T13:32:15;18.20;;;8.50;;
1128;SDS011;553;51.038;7.216;2022-12-18T13:34:18;21.95;;;12.27;;
1128;SDS011;553;51.038;7.216;2022-12-18T13:36:54;20.08;;;9.63;;
1128;SDS011;553;51.038;7.216;2022-12-18T13:39:24;19.63;;;11.00;;
1128;SDS011;553;51.038;7.216;2022-12-18T13:44:40;18.98;;;11.18;;
1128;SDS011;553;51.038;7.216;2022-12-18T13:50:00;25.42;;;12.35;;
1128;SDS011;553;51.038;7.216;2022-12-18T13:52:35;34.90;;;15.90;;
1128;SDS011;553;51.038;7.216;2022-12-18T13:55:06;23.67;;;12.32;;
1128;SDS011;553;51.038;7.216;2022-12-18T13:57:41;20.73;;;11.50;;
1128;SDS011;553;51.038;7.216;2022-12-18T14:00:23;23.63;;;11.80;;
1128;SDS011;553;51.038;7.216;2022-12-18T14:02:52;25.33;;;12.95;;
1128;SDS011;553;51.038;7.216;2022-12-18T14:05:23;19.58;;;12.30;;
1128;SDS011;553;51.038;7.216;2022-12-18T14:07:53;23.63;;;10.98;;
1128;SDS011;553;51.038;7.216;2022-12-18T14:10:22;23.48;;;12.75;;
1128;SDS011;553;51.038;7.216;2022-12-18T14:13:10;21.35;;;11.15;;
1128;SDS011;553;51.038;7.216;2022-12-18T14:15:43;21.38;;;11.45;;
1128;SDS011;553;51.038;7.216;2022-12-18T14:20:46;23.75;;;11.32;;
1128;SDS011;553;51.038;7.216;2022-12-18T14:25:59;18.20;;;10.73;;
1128;SDS011;553;51.038;7.216;2022-12-18T14:28:31;20.50;;;11.02;;
1128;SDS011;553;51.038;7.216;2022-12-18T14:30:58;24.65;;;12.18;;
1128;SDS011;553;51.038;7.216;2022-12-18T14:33:26;23.88;;;12.52;;
1128;SDS011;553;51.038;7.216;2022-12-18T14:35:54;24.67;;;11.93;;
1128;SDS011;553;51.038;7.216;2022-12-18T14:40:53;22.38;;;12.52;;
1128;SDS011;553;51.038;7.216;2022-12-18T14:43:28;24.63;;;12.38;;
1128;SDS011;553;51.038;7.216;2022-12-18T14:45:58;24.52;;;13.48;;
1128;SDS011;553;51.038;7.216;2022-12-18T14:48:33;21.73;;;11.80;;
1128;SDS011;553;51.038;7.216;2022-12-18T14:51:24;27.70;;;14.07;;
1128;SDS011;553;51.038;7.216;2022-12-18T14:53:56;18.13;;;11.45;;
1128;SDS011;553;51.038;7.216;2022-12-18T14:56:33;25.35;;;13.15;;
1128;SDS011;553;51.038;7.216;2022-12-18T14:59:05;25.58;;;14.55;;
1128;SDS011;553;51.038;7.216;2022-12-18T15:01:46;22.23;;;10.90;;
1128;SDS011;553;51.038;7.216;2022-12-18T15:04:32;28.40;;;12.20;;
1128;SDS011;553;51.038;7.216;2022-12-18T15:07:12;24.13;;;13.35;;
1128;SDS011;553;51.038;7.216;2022-12-18T15:10:03;30.50;;;13.13;;
1128;SDS011;553;51.038;7.216;2022-12-18T15:12:35;21.77;;;11.15;;
1128;SDS011;553;51.038;7.216;2022-12-18T15:18:04;23.63;;;13.55;;
1128;SDS011;553;51.038;7.216;2022-12-18T15:23:34;21.70;;;13.38;;
1128;SDS011;553;51.038;7.216;2022-12-18T15:26:20;25.60;;;13.90;;
1128;SDS011;553;51.038;7.216;2022-12-18T15:36:20;26.67;;;11.90;;
1128;SDS011;553;51.038;7.216;2022-12-18T15:38:52;23.08;;;12.00;;
1128;SDS011;553;51.038;7.216;2022-12-18T15:41:31;22.98;;;13.68;;
1128;SDS011;553;51.038;7.216;2022-12-18T15:44:01;26.27;;;14.55;;
1128;SDS011;553;51.038;7.216;2022-12-18T15:46:29;27.80;;;14.43;;
1128;SDS011;553;51.038;7.216;2022-12-18T15:48:57;25.88;;;12.45;;
1128;SDS011;553;51.038;7.216;2022-12-18T15:53:58;22.05;;;12.38;;
1128;SDS011;553;51.038;7.216;2022-12-18T15:56:27;23.00;;;13.25;;
1128;SDS011;553;51.038;7.216;2022-12-18T15:59:19;25.88;;;15.23;;
1128;SDS011;553;51.038;7.216;2022-12-18T16:01:48;28.70;;;15.32;;
1128;SDS011;553;51.038;7.216;2022-12-18T16:04:18;18.08;;;10.70;;
1128;SDS011;553;51.038;7.216;2022-12-18T16:06:47;29.70;;;15.82;;
1128;SDS011;553;51.038;7.216;2022-12-18T16:09:34;26.70;;;11.32;;
1128;SDS011;553;51.038;7.216;2022-12-18T16:12:01;25.27;;;13.40;;
1128;SDS011;553;51.038;7.216;2022-12-18T16:14:29;29.10;;;16.67;;
1128;SDS011;553;51.038;7.216;2022-12-18T16:17:00;28.58;;;16.13;;
1128;SDS011;553;51.038;7.216;2022-12-18T16:19:29;27.52;;;13.95;;
1128;SDS011;553;51.038;7.216;2022-12-18T16:21:57;28.65;;;14.95;;
1128;SDS011;553;51.038;7.216;2022-12-18T16:24:25;31.42;;;14.02;;
1128;SDS011;553;51.038;7.216;2022-12-18T16:26:53;29.77;;;14.13;;
1128;SDS011;553;51.038;7.216;2022-12-18T16:29:22;33.28;;;16.20;;
1128;SDS011;553;51.038;7.216;2022-12-18T16:31:54;29.27;;;15.63;;
1128;SDS011;553;51.038;7.216;2022-12-18T16:34:22;28.88;;;14.35;;
1128;SDS011;553;51.038;7.216;2022-12-18T16:37:04;26.88;;;15.93;;
1128;SDS011;553;51.038;7.216;2022-12-18T16:39:32;36.03;;;17.38;;
1128;SDS011;553;51.038;7.216;2022-12-18T16:42:01;26.13;;;13.55;;
1128;SDS011;553;51.038;7.216;2022-12-18T16:44:31;40.60;;;16.83;;
1128;SDS011;553;51.038;7.216;2022-12-18T16:47:02;37.70;;;17.70;;
1128;SDS011;553;51.038;7.216;2022-12-18T16:49:30;31.25;;;17.45;;
1128;SDS011;553;51.038;7.216;2022-12-18T16:51:56;39.65;;;19.23;;
1128;SDS011;553;51.038;7.216;2022-12-18T16:54:23;32.75;;;17.20;;
1128;SDS011;553;51.038;7.216;2022-12-18T16:56:50;38.67;;;19.08;;
1128;SDS011;553;51.038;7.216;2022-12-18T16:59:17;24.73;;;12.75;;
1128;SDS011;553;51.038;7.216;2022-12-18T17:01:45;38.95;;;18.00;;
1128;SDS011;553;51.038;7.216;2022-12-18T17:04:13;33.75;;;17.70;;
1128;SDS011;553;51.038;7.216;2022-12-18T17:06:41;39.33;;;20.35;;
1128;SDS011;553;51.038;7.216;2022-12-18T17:09:13;35.25;;;17.42;;
1128;SDS011;553;51.038;7.216;2022-12-18T17:11:44;37.00;;;18.52;;
1128;SDS011;553;51.038;7.216;2022-12-18T17:14:15;36.70;;;16.70;;
1128;SDS011;553;51.038;7.216;2022-12-18T17:16:44;40.53;;;21.48;;
1128;SDS011;553;51.038;7.216;2022-12-18T17:19:12;38.63;;;18.10;;
1128;SDS011;553;51.038;7.216;2022-12-18T17:21:43;37.95;;;19.95;;
1128;SDS011;553;51.038;7.216;2022-12-18T17:24:12;41.88;;;19.70;;
1128;SDS011;553;51.038;7.216;2022-12-18T17:26:39;37.25;;;18.33;;
1128;SDS011;553;51.038;7.216;2022-12-18T17:29:05;34.97;;;16.98;;
1128;SDS011;553;51.038;7.216;2022-12-18T17:31:32;37.20;;;17.27;;
1128;SDS011;553;51.038;7.216;2022-12-18T17:34:00;36.30;;;18.83;;
1128;SDS011;553;51.038;7.216;2022-12-18T17:36:28;39.33;;;19.70;;